Time;durP1;ratioP1;P1;durP2;ratioP2;P2;SDS_P1;SDS_P2;PMS_P1;PMS_P2;Temp;Humidity;BMP_temperature;BMP_pressure;BME280_temperature;BME280_humidity;BME280_pressure;Samples;Min_cycle;Max_cycle;Signal;HPM_P1;HPM_P2
2023/04/03 00:01:00;;;;;;;11.88;2.38;;;;;;;;;;4945107;28;20048;-83
2023/04/03 00:03:26;;;;;;;8.27;1.98;;;;;;;;;;4947452;28;20043;-81
2023/04/03 00:05:55;;;;;;;7.40;1.88;;;;;;;;;;4964838;28;20042;-83
2023/04/03 00:08:23;;;;;;;8.75;1.90;;;;;;;;;;4962920;28;20030;-83
2023/04/03 00:10:52;;;;;;;9.80;2.13;;;;;;;;;;4959568;28;20383;-84
2023/04/03 00:13:21;;;;;;;9.00;2.28;;;;;;;;;;4962221;28;20034;-83
2023/04/03 00:15:49;;;;;;;9.35;2.13;;;;;;;;;;4962163;28;20389;-83
2023/04/03 00:18:17;;;;;;;11.35;2.60;;;;;;;;;;4935753;28;20671;-83
2023/04/03 00:20:45;;;;;;;10.80;3.15;;;;;;;;;;4962566;28;20041;-82
2023/04/03 00:23:15;;;;;;;10.82;2.58;;;;;;;;;;4966708;28;20030;-81
2023/04/03 00:25:44;;;;;;;8.65;2.55;;;;;;;;;;4957150;28;20162;-82
2023/04/03 00:28:13;;;;;;;8.02;2.15;;;;;;;;;;4953778;28;20384;-81
2023/04/03 00:30:40;;;;;;;8.48;2.13;;;;;;;;;;4965593;28;20061;-81
2023/04/03 00:33:06;;;;;;;8.25;1.77;;;;;;;;;;4966422;28;20049;-81
2023/04/03 00:35:35;;;;;;;10.38;1.83;;;;;;;;;;4949345;28;20023;-81
2023/04/03 00:38:04;;;;;;;11.32;2.22;;;;;;;;;;4959127;28;20875;-81
2023/04/03 00:40:36;;;;;;;7.43;1.67;;;;;;;;;;4965459;28;20071;-81
2023/04/03 00:43:02;;;;;;;6.88;1.70;;;;;;;;;;4945157;28;20049;-81
2023/04/03 00:45:29;;;;;;;;;;;;;;;;;;4942079;28;20305;-82
2023/04/03 00:47:55;;;;;;;;;;;;;;;;;;4960366;28;19929;-82
2023/04/03 00:50:23;;;;;;;9.10;1.98;;;;;;;;;;4945696;28;19914;-82
2023/04/03 00:52:49;;;;;;;8.77;2.00;;;;;;;;;;4961308;28;20104;-82
2023/04/03 00:55:16;;;;;;;;;;;;;;;;;;4962383;28;20499;-82
2023/04/03 00:57:45;;;;;;;9.02;2.30;;;;;;;;;;4958995;28;19914;-82
2023/04/03 01:00:16;;;;;;;7.40;1.73;;;;;;;;;;4949613;28;20045;-82
2023/04/03 01:02:43;;;;;;;7.45;1.70;;;;;;;;;;4958325;28;20257;-82
2023/04/03 01:05:10;;;;;;;10.40;1.80;;;;;;;;;;4944534;28;20436;-82
2023/04/03 01:07:37;;;;;;;8.70;1.80;;;;;;;;;;4981176;28;20042;-82
2023/04/03 01:10:17;;;;;;;9.85;2.15;;;;;;;;;;4979496;28;20056;-81
2023/04/03 01:12:49;;;;;;;10.15;1.90;;;;;;;;;;4980897;28;20049;-82
2023/04/03 01:15:27;;;;;;;9.07;2.20;;;;;;;;;;4982259;28;20110;-81
2023/04/03 01:17:57;;;;;;;8.93;2.08;;;;;;;;;;4979481;28;20035;-82
2023/04/03 01:20:41;;;;;;;8.30;1.77;;;;;;;;;;4956817;28;20118;-81
2023/04/03 01:23:24;;;;;;;9.85;2.20;;;;;;;;;;4973032;28;20039;-81
2023/04/03 01:25:54;;;;;;;10.50;2.00;;;;;;;;;;4963557;28;20441;-81
2023/04/03 01:28:31;;;;;;;7.60;1.85;;;;;;;;;;4953263;28;20375;-81
2023/04/03 01:31:28;;;;;;;6.50;1.45;;;;;;;;;;4963108;28;20042;-81
2023/04/03 01:33:54;;;;;;;11.30;1.80;;;;;;;;;;4945540;28;20361;-81
2023/04/03 01:36:30;;;;;;;6.20;1.50;;;;;;;;;;4958102;28;20042;-80
2023/04/03 01:39:02;;;;;;;7.60;1.30;;;;;;;;;;4943944;28;20133;-82
2023/04/03 01:41:32;;;;;;;8.00;1.77;;;;;;;;;;4960334;28;20042;-80
2023/04/03 01:43:59;;;;;;;9.65;1.77;;;;;;;;;;4941941;28;20122;-81
2023/04/03 01:46:26;;;;;;;10.48;1.35;;;;;;;;;;4945845;28;20086;-83
2023/04/03 01:48:55;;;;;;;9.73;1.85;;;;;;;;;;4962113;28;20507;-81
2023/04/03 01:51:22;;;;;;;7.05;1.58;;;;;;;;;;4960241;28;20121;-81
2023/04/03 01:53:49;;;;;;;8.93;1.98;;;;;;;;;;4948135;28;20030;-83
2023/04/03 01:56:17;;;;;;;7.93;1.30;;;;;;;;;;4966709;28;20436;-82
2023/04/03 01:58:47;;;;;;;9.32;1.95;;;;;;;;;;4956410;28;20130;-82
2023/04/03 02:01:15;;;;;;;7.28;1.65;;;;;;;;;;4923027;28;20070;-83
2023/04/03 02:03:41;;;;;;;9.60;1.77;;;;;;;;;;4941969;28;20998;-82
2023/04/03 02:06:09;;;;;;;9.70;1.88;;;;;;;;;;4943362;28;20047;-83
2023/04/03 02:08:38;;;;;;;10.68;2.00;;;;;;;;;;4940422;28;20675;-82
2023/04/03 02:11:07;;;;;;;8.82;1.77;;;;;;;;;;4939510;28;20090;-83
2023/04/03 02:13:35;;;;;;;11.10;2.03;;;;;;;;;;4939865;28;20036;-81
2023/04/03 02:16:12;;;;;;;9.55;1.67;;;;;;;;;;4925408;28;22902;-81
2023/04/03 02:18:41;;;;;;;9.60;1.80;;;;;;;;;;4929528;28;20038;-82
2023/04/03 02:21:08;;;;;;;9.38;1.88;;;;;;;;;;4964017;28;20207;-83
2023/04/03 02:23:36;;;;;;;10.10;1.63;;;;;;;;;;4964270;28;20090;-81
2023/04/03 02:26:05;;;;;;;9.88;2.10;;;;;;;;;;4943919;28;20635;-82
2023/04/03 02:28:33;;;;;;;8.70;1.90;;;;;;;;;;4965762;28;20504;-83
2023/04/03 02:31:02;;;;;;;9.05;1.95;;;;;;;;;;4952033;28;20050;-83
2023/04/03 02:33:31;;;;;;;10.82;2.05;;;;;;;;;;4966186;28;20375;-81
2023/04/03 02:36:00;;;;;;;9.35;1.92;;;;;;;;;;4950569;28;20051;-81
2023/04/03 02:38:27;;;;;;;9.00;1.92;;;;;;;;;;4950476;28;20105;-81
2023/04/03 02:41:00;;;;;;;9.68;1.88;;;;;;;;;;4944286;28;20113;-80
2023/04/03 02:43:28;;;;;;;10.90;2.08;;;;;;;;;;4931501;28;20484;-81
2023/04/03 02:45:55;;;;;;;12.38;2.10;;;;;;;;;;4944623;28;20043;-81
2023/04/03 02:48:25;;;;;;;8.75;1.65;;;;;;;;;;4946408;28;20046;-80
2023/04/03 02:50:53;;;;;;;9.68;1.70;;;;;;;;;;4940229;28;21402;-80
2023/04/03 02:53:23;;;;;;;11.10;2.25;;;;;;;;;;4947897;28;20091;-81
2023/04/03 02:55:51;;;;;;;10.93;2.20;;;;;;;;;;4958753;28;20051;-81
2023/04/03 02:58:18;;;;;;;11.82;2.40;;;;;;;;;;4962260;28;20045;-81
2023/04/03 03:00:45;;;;;;;12.38;2.28;;;;;;;;;;4958747;28;20806;-82
2023/04/03 03:03:14;;;;;;;13.45;2.33;;;;;;;;;;4960671;28;20035;-81
2023/04/03 03:05:45;;;;;;;9.68;2.10;;;;;;;;;;4957926;28;20736;-82
2023/04/03 03:08:11;;;;;;;10.45;1.77;;;;;;;;;;4958740;28;20295;-81
2023/04/03 03:10:38;;;;;;;12.25;2.08;;;;;;;;;;4957698;28;20869;-81
2023/04/03 03:13:07;;;;;;;8.73;1.90;;;;;;;;;;4956739;28;20534;-81
2023/04/03 03:15:34;;;;;;;10.05;2.20;;;;;;;;;;4958612;28;20117;-81
2023/04/03 03:18:03;;;;;;;10.55;2.30;;;;;;;;;;4957805;28;20049;-81
2023/04/03 03:20:30;;;;;;;11.10;2.08;;;;;;;;;;4932972;28;20034;-80
2023/04/03 03:22:59;;;;;;;10.32;2.00;;;;;;;;;;4959106;28;20035;-81
2023/04/03 03:25:26;;;;;;;10.85;2.63;;;;;;;;;;4961166;28;20022;-81
2023/04/03 03:27:55;;;;;;;10.15;2.13;;;;;;;;;;4956460;28;20041;-81
2023/04/03 03:30:22;;;;;;;14.50;2.58;;;;;;;;;;4946023;28;20261;-81
2023/04/03 03:32:49;;;;;;;9.73;2.15;;;;;;;;;;4962798;28;20060;-81
2023/04/03 03:35:18;;;;;;;10.55;2.25;;;;;;;;;;4967888;28;20026;-81
2023/04/03 03:37:46;;;;;;;12.88;2.30;;;;;;;;;;4963597;28;20469;-81
2023/04/03 03:40:13;;;;;;;12.13;2.50;;;;;;;;;;4959587;28;20030;-80
2023/04/03 03:42:44;;;;;;;12.82;2.75;;;;;;;;;;4962858;28;20042;-80
2023/04/03 03:45:13;;;;;;;12.25;2.22;;;;;;;;;;4965994;28;20088;-83
2023/04/03 03:47:41;;;;;;;9.88;2.20;;;;;;;;;;4946869;28;20052;-80
2023/04/03 03:50:09;;;;;;;8.70;2.20;;;;;;;;;;4949314;28;20420;-85
2023/04/03 03:52:36;;;;;;;10.77;2.15;;;;;;;;;;4966366;28;20059;-83
2023/04/03 03:55:04;;;;;;;12.20;2.95;;;;;;;;;;4963031;28;20069;-83
2023/04/03 03:57:32;;;;;;;10.82;2.60;;;;;;;;;;4962439;28;20037;-81
2023/04/03 03:59:59;;;;;;;9.13;2.08;;;;;;;;;;4941495;28;20031;-81
2023/04/03 04:02:26;;;;;;;8.57;2.40;;;;;;;;;;4949976;28;20034;-80
2023/04/03 04:04:54;;;;;;;10.02;2.47;;;;;;;;;;4948560;28;20412;-81
2023/04/03 04:07:21;;;;;;;11.65;2.58;;;;;;;;;;4945188;28;20034;-80
2023/04/03 04:09:49;;;;;;;11.63;2.17;;;;;;;;;;4957039;28;20869;-81
2023/04/03 04:12:16;;;;;;;9.85;2.05;;;;;;;;;;4934583;28;20311;-81
2023/04/03 04:14:46;;;;;;;7.70;1.63;;;;;;;;;;4958194;28;20035;-81
2023/04/03 04:17:15;;;;;;;9.15;2.20;;;;;;;;;;4961490;28;20030;-81
2023/04/03 04:19:43;;;;;;;9.80;1.95;;;;;;;;;;4947845;28;20046;-80
2023/04/03 04:22:09;;;;;;;8.00;1.80;;;;;;;;;;4950234;28;20038;-81
2023/04/03 04:24:37;;;;;;;9.07;1.88;;;;;;;;;;4946613;28;20450;-81
2023/04/03 04:27:06;;;;;;;11.48;2.15;;;;;;;;;;4940020;28;20034;-81
2023/04/03 04:29:36;;;;;;;8.65;1.92;;;;;;;;;;4939892;28;20403;-82
2023/04/03 04:32:04;;;;;;;8.85;2.15;;;;;;;;;;4963491;28;20045;-80
2023/04/03 04:34:32;;;;;;;9.82;1.73;;;;;;;;;;4957432;28;20055;-81
2023/04/03 04:37:01;;;;;;;10.15;1.90;;;;;;;;;;4954763;28;20556;-81
2023/04/03 04:39:28;;;;;;;10.65;2.40;;;;;;;;;;4939685;28;20078;-81
2023/04/03 04:41:56;;;;;;;8.52;2.00;;;;;;;;;;4956725;28;20746;-82
2023/04/03 04:44:24;;;;;;;12.45;2.08;;;;;;;;;;4942601;28;20604;-82
2023/04/03 04:46:52;;;;;;;10.45;2.03;;;;;;;;;;4944384;28;20038;-82
2023/04/03 04:49:18;;;;;;;9.30;1.80;;;;;;;;;;4958443;28;20034;-81
2023/04/03 04:51:46;;;;;;;9.75;2.20;;;;;;;;;;4952843;28;20026;-82
2023/04/03 04:54:16;;;;;;;9.23;2.00;;;;;;;;;;4961454;28;20556;-82
2023/04/03 04:56:43;;;;;;;9.15;2.00;;;;;;;;;;4910871;28;20205;-83
2023/04/03 04:59:10;;;;;;;9.15;2.00;;;;;;;;;;4943487;28;20065;-82
2023/04/03 05:01:37;;;;;;;8.82;1.95;;;;;;;;;;4960882;28;20042;-82
2023/04/03 05:04:05;;;;;;;8.63;1.85;;;;;;;;;;4960445;28;20092;-81
2023/04/03 05:06:34;;;;;;;7.55;1.70;;;;;;;;;;4959590;28;20186;-82
2023/04/03 05:09:01;;;;;;;9.88;1.95;;;;;;;;;;4940086;28;20057;-82
2023/04/03 05:11:28;;;;;;;11.95;2.42;;;;;;;;;;4961657;28;20018;-82
2023/04/03 05:13:57;;;;;;;13.05;2.20;;;;;;;;;;4962525;28;20035;-82
2023/04/03 05:16:25;;;;;;;10.85;2.28;;;;;;;;;;4976249;28;20089;-82
2023/04/03 05:18:54;;;;;;;8.13;2.00;;;;;;;;;;4964818;28;20403;-82
2023/04/03 05:21:23;;;;;;;11.45;2.03;;;;;;;;;;4968036;28;20014;-83
2023/04/03 05:23:52;;;;;;;10.13;2.20;;;;;;;;;;4964202;28;20041;-83
2023/04/03 05:26:20;;;;;;;12.77;2.20;;;;;;;;;;4975253;28;20023;-81
2023/04/03 05:28:48;;;;;;;10.88;2.08;;;;;;;;;;4946350;28;20604;-83
2023/04/03 05:31:16;;;;;;;10.27;2.10;;;;;;;;;;4964897;28;20033;-82
2023/04/03 05:33:45;;;;;;;8.80;1.75;;;;;;;;;;4954368;28;20038;-82
2023/04/03 05:36:13;;;;;;;11.48;2.00;;;;;;;;;;4924320;28;20170;-82
2023/04/03 05:38:41;;;;;;;9.35;1.98;;;;;;;;;;4955328;28;20380;-82
2023/04/03 05:41:08;;;;;;;11.27;2.03;;;;;;;;;;4959291;28;20295;-82
2023/04/03 05:43:38;;;;;;;12.13;2.03;;;;;;;;;;4958351;28;20137;-82
2023/04/03 05:46:16;;;;;;;8.70;2.03;;;;;;;;;;4952641;28;20026;-81
2023/04/03 05:48:44;;;;;;;11.98;1.75;;;;;;;;;;4942792;28;20508;-81
2023/04/03 05:51:15;;;;;;;9.10;2.05;;;;;;;;;;4955648;28;20389;-82
2023/04/03 05:53:44;;;;;;;8.15;1.83;;;;;;;;;;4953860;28;20027;-82
2023/04/03 05:56:11;;;;;;;12.85;2.20;;;;;;;;;;4945015;28;20649;-82
2023/04/03 05:58:38;;;;;;;13.55;3.17;;;;;;;;;;4956811;28;20073;-82
2023/04/03 06:01:09;;;;;;;18.02;5.78;;;;;;;;;;4935108;28;20343;-82
2023/04/03 06:03:36;;;;;;;26.48;10.68;;;;;;;;;;4958231;28;20403;-82
2023/04/03 06:06:05;;;;;;;36.45;15.95;;;;;;;;;;4958790;28;20057;-82
2023/04/03 06:08:33;;;;;;;59.55;26.70;;;;;;;;;;4930566;28;20696;-81
2023/04/03 06:11:01;;;;;;;69.53;31.95;;;;;;;;;;4948508;28;20069;-81
2023/04/03 06:13:30;;;;;;;73.80;35.30;;;;;;;;;;4971397;28;20067;-81
2023/04/03 06:15:58;;;;;;;102.88;40.40;;;;;;;;;;4965063;28;20406;-81
2023/04/03 06:18:26;;;;;;;95.53;42.92;;;;;;;;;;4959551;28;20085;-81
2023/04/03 06:20:53;;;;;;;100.07;44.65;;;;;;;;;;4956809;28;20076;-81
2023/04/03 06:23:20;;;;;;;72.47;32.95;;;;;;;;;;4963576;28;20027;-81
2023/04/03 06:25:48;;;;;;;62.40;28.95;;;;;;;;;;4956347;28;20061;-81
2023/04/03 06:28:16;;;;;;;58.95;26.42;;;;;;;;;;4959583;28;20272;-81
2023/04/03 06:30:45;;;;;;;47.65;22.67;;;;;;;;;;4945769;28;20548;-82
2023/04/03 06:33:12;;;;;;;50.40;20.33;;;;;;;;;;4943826;28;20029;-83
2023/04/03 06:35:40;;;;;;;41.40;16.63;;;;;;;;;;4939930;28;20125;-83
2023/04/03 06:38:09;;;;;;;31.85;13.65;;;;;;;;;;4960152;28;20528;-81
2023/04/03 06:40:38;;;;;;;31.63;11.98;;;;;;;;;;4961418;28;20030;-81
2023/04/03 06:43:08;;;;;;;23.25;10.52;;;;;;;;;;4944255;28;20397;-82
2023/04/03 06:45:36;;;;;;;27.83;10.40;;;;;;;;;;4946511;28;20220;-83
2023/04/03 06:48:05;;;;;;;23.77;10.23;;;;;;;;;;4940007;28;20379;-83
2023/04/03 06:50:32;;;;;;;28.90;11.93;;;;;;;;;;4960519;28;20038;-81
2023/04/03 06:53:01;;;;;;;24.52;10.55;;;;;;;;;;4941008;28;20027;-82
2023/04/03 06:55:29;;;;;;;24.40;9.43;;;;;;;;;;4960507;28;20125;-81
2023/04/03 06:57:58;;;;;;;21.35;9.07;;;;;;;;;;4955924;28;20030;-82
2023/04/03 07:00:27;;;;;;;24.63;9.52;;;;;;;;;;4959002;28;20403;-81
2023/04/03 07:02:56;;;;;;;18.55;6.57;;;;;;;;;;4951857;28;20801;-81
2023/04/03 07:05:27;;;;;;;18.60;7.05;;;;;;;;;;4963437;28;20030;-81
2023/04/03 07:07:54;;;;;;;20.17;5.60;;;;;;;;;;4960286;28;20822;-83
2023/04/03 07:10:20;;;;;;;15.88;5.07;;;;;;;;;;4964650;28;20089;-82
2023/04/03 07:12:46;;;;;;;;;;;;;;;;;;4961900;28;20061;-80
2023/04/03 07:15:15;;;;;;;16.05;3.25;;;;;;;;;;4961220;28;20253;-84
2023/04/03 07:17:44;;;;;;;12.07;2.97;;;;;;;;;;4958769;28;20551;-82
2023/04/03 07:20:12;;;;;;;11.55;2.78;;;;;;;;;;4961655;28;20591;-81
2023/04/03 07:22:39;;;;;;;11.20;2.67;;;;;;;;;;4970239;28;20037;-82
2023/04/03 07:25:07;;;;;;;14.35;3.25;;;;;;;;;;4962111;28;20023;-82
2023/04/03 07:27:36;;;;;;;9.13;2.40;;;;;;;;;;4946120;28;20467;-82
2023/04/03 07:30:04;;;;;;;12.95;2.80;;;;;;;;;;4958725;28;20385;-82
2023/04/03 07:32:31;;;;;;;12.93;2.70;;;;;;;;;;4956577;28;20030;-82
2023/04/03 07:34:59;;;;;;;12.52;2.55;;;;;;;;;;4938612;28;20093;-82
2023/04/03 07:37:27;;;;;;;13.57;2.50;;;;;;;;;;4960911;28;20066;-82
2023/04/03 07:39:56;;;;;;;15.02;2.28;;;;;;;;;;4946694;28;20034;-81
2023/04/03 07:42:24;;;;;;;14.88;2.63;;;;;;;;;;4943280;28;20035;-82
2023/04/03 07:44:55;;;;;;;10.88;2.60;;;;;;;;;;4942359;28;20034;-82
2023/04/03 07:47:22;;;;;;;22.15;2.92;;;;;;;;;;4928641;28;20165;-83
2023/04/03 07:49:50;;;;;;;12.45;2.58;;;;;;;;;;4959508;28;20077;-82
2023/04/03 07:52:16;;;;;;;10.13;2.72;;;;;;;;;;4959871;28;20561;-82
2023/04/03 07:54:43;;;;;;;;;;;;;;;;;;4959034;28;20062;-82
2023/04/03 07:57:11;;;;;;;16.63;3.20;;;;;;;;;;4940251;28;20329;-82
2023/04/03 07:59:42;;;;;;;15.23;2.90;;;;;;;;;;4958357;28;20064;-82
2023/04/03 08:02:12;;;;;;;10.68;2.72;;;;;;;;;;4960955;28;20039;-83
2023/04/03 08:04:41;;;;;;;16.65;2.70;;;;;;;;;;4952973;28;20034;-83
2023/04/03 08:07:10;;;;;;;11.65;2.88;;;;;;;;;;4958244;28;20030;-81
2023/04/03 08:09:37;;;;;;;;;;;;;;;;;;4938118;28;20436;-81
2023/04/03 08:12:05;;;;;;;13.75;2.60;;;;;;;;;;4935917;28;19913;-81
2023/04/03 08:14:35;;;;;;;14.27;2.25;;;;;;;;;;4956012;28;20284;-82
2023/04/03 08:17:04;;;;;;;14.10;2.45;;;;;;;;;;4939847;28;20026;-82
2023/04/03 08:19:32;;;;;;;11.52;2.53;;;;;;;;;;4943000;28;20481;-83
2023/04/03 08:22:02;;;;;;;13.88;2.03;;;;;;;;;;4951851;28;20037;-82
2023/04/03 08:24:30;;;;;;;11.95;2.47;;;;;;;;;;4954504;28;20034;-81
2023/04/03 08:26:58;;;;;;;9.45;1.73;;;;;;;;;;4951621;28;20469;-81
2023/04/03 08:29:25;;;;;;;10.27;2.03;;;;;;;;;;4944746;28;20472;-81
2023/04/03 08:31:53;;;;;;;11.52;2.10;;;;;;;;;;4938864;28;20022;-81
2023/04/03 08:34:39;;;;;;;9.88;2.00;;;;;;;;;;4961485;28;20595;-81
2023/04/03 08:37:06;;;;;;;11.85;2.30;;;;;;;;;;4956874;28;20472;-81
2023/04/03 08:39:35;;;;;;;9.20;2.08;;;;;;;;;;4942933;28;20073;-81
2023/04/03 08:42:07;;;;;;;8.32;1.50;;;;;;;;;;4958750;28;20027;-81
2023/04/03 08:44:52;;;;;;;9.02;1.70;;;;;;;;;;4947301;28;20038;-81
2023/04/03 08:47:31;;;;;;;9.32;2.10;;;;;;;;;;4960123;28;20049;-81
2023/04/03 08:50:01;;;;;;;11.82;1.98;;;;;;;;;;4954705;28;20043;-81
2023/04/03 08:52:38;;;;;;;13.48;2.80;;;;;;;;;;4935812;28;20412;-80
2023/04/03 08:55:08;;;;;;;10.30;2.30;;;;;;;;;;4955038;28;20453;-81
2023/04/03 08:57:37;;;;;;;8.70;2.45;;;;;;;;;;4928446;28;20367;-81
2023/04/03 09:00:07;;;;;;;13.20;3.38;;;;;;;;;;4944164;28;20366;-81
2023/04/03 09:02:52;;;;;;;13.02;4.50;;;;;;;;;;4929839;28;20043;-82
2023/04/03 09:05:56;;;;;;;12.63;3.42;;;;;;;;;;4960352;28;20547;-82
2023/04/03 09:08:31;;;;;;;13.07;4.22;;;;;;;;;;4890878;29;20508;-82
2023/04/03 09:11:15;;;;;;;11.18;3.92;;;;;;;;;;4868210;29;20048;-83
2023/04/03 09:13:50;;;;;;;14.82;3.88;;;;;;;;;;4881906;29;20024;-83
2023/04/03 09:16:26;;;;;;;14.02;3.30;;;;;;;;;;4886319;29;20654;-82
2023/04/03 09:19:05;;;;;;;15.23;3.80;;;;;;;;;;4885380;29;20051;-83
2023/04/03 09:21:38;;;;;;;13.15;3.05;;;;;;;;;;4857328;29;20061;-83
2023/04/03 09:24:08;;;;;;;14.07;3.90;;;;;;;;;;4868613;29;20045;-82
2023/04/03 09:26:47;;;;;;;9.27;2.85;;;;;;;;;;4871904;29;20091;-83
2023/04/03 09:29:19;;;;;;;10.38;2.60;;;;;;;;;;4885111;29;20506;-83
2023/04/03 09:31:47;;;;;;;13.07;2.97;;;;;;;;;;4876457;29;20060;-83
2023/04/03 09:34:26;;;;;;;10.40;2.65;;;;;;;;;;4872409;29;20044;-83
2023/04/03 09:36:56;;;;;;;14.02;3.65;;;;;;;;;;4874204;29;20045;-82
2023/04/03 09:39:30;;;;;;;10.55;2.90;;;;;;;;;;4873077;29;20650;-82
2023/04/03 09:42:08;;;;;;;11.73;3.50;;;;;;;;;;4900217;28;20039;-82
2023/04/03 09:44:36;;;;;;;10.85;2.83;;;;;;;;;;4937814;28;20589;-83
2023/04/03 09:47:38;;;;;;;11.40;4.35;;;;;;;;;;4939019;28;20530;-83
2023/04/03 09:50:15;;;;;;;14.60;3.80;;;;;;;;;;4867450;29;20518;-81
2023/04/03 09:52:43;;;;;;;11.88;3.30;;;;;;;;;;4870814;29;20048;-81
2023/04/03 09:55:26;;;;;;;10.35;2.92;;;;;;;;;;4875379;29;20032;-83
2023/04/03 09:58:01;;;;;;;11.55;3.20;;;;;;;;;;4868382;29;20116;-81
2023/04/03 10:00:35;;;;;;;14.43;3.63;;;;;;;;;;4876336;29;20500;-83
2023/04/03 10:03:03;;;;;;;11.52;3.05;;;;;;;;;;4868093;29;20142;-82
2023/04/03 10:05:33;;;;;;;31.65;4.45;;;;;;;;;;4855964;29;20516;-82
2023/04/03 10:08:23;;;;;;;11.27;2.72;;;;;;;;;;4873691;29;20119;-80
2023/04/03 10:11:09;;;;;;;10.75;2.53;;;;;;;;;;4876399;29;20068;-81
2023/04/03 10:13:56;;;;;;;26.98;3.45;;;;;;;;;;4868701;29;20047;-82
2023/04/03 10:16:52;;;;;;;75.45;6.82;;;;;;;;;;4863867;29;20084;-81
2023/04/03 10:19:37;;;;;;;42.15;3.95;;;;;;;;;;4802468;29;20381;-81
2023/04/03 10:22:22;;;;;;;23.52;3.17;;;;;;;;;;4790256;29;20823;-81
2023/04/03 10:24:57;;;;;;;14.80;2.85;;;;;;;;;;4851988;29;20075;-83
2023/04/03 10:27:28;;;;;;;12.00;2.70;;;;;;;;;;4874606;29;20045;-83
2023/04/03 10:30:22;;;;;;;13.98;2.58;;;;;;;;;;4853431;29;20040;-83
2023/04/03 10:33:08;;;;;;;15.57;2.72;;;;;;;;;;4866207;29;20072;-82
2023/04/03 10:35:52;;;;;;;10.90;2.47;;;;;;;;;;4873584;29;20343;-83
2023/04/03 10:38:42;;;;;;;11.13;2.80;;;;;;;;;;4881976;29;20057;-83
2023/04/03 10:41:27;;;;;;;13.68;2.95;;;;;;;;;;4875990;29;20035;-83
2023/04/03 10:44:04;;;;;;;10.90;2.45;;;;;;;;;;4884396;29;20377;-83
2023/04/03 10:47:02;;;;;;;11.70;2.55;;;;;;;;;;4887297;29;20173;-83
2023/04/03 10:49:46;;;;;;;12.23;3.00;;;;;;;;;;4774122;29;20062;-82
2023/04/03 10:52:47;;;;;;;10.10;2.30;;;;;;;;;;4762288;29;20632;-83
2023/04/03 10:55:36;;;;;;;12.73;2.72;;;;;;;;;;4770605;29;20027;-81
2023/04/03 10:58:04;;;;;;;14.00;3.05;;;;;;;;;;4828076;29;20529;-80
2023/04/03 11:00:41;;;;;;;18.58;3.22;;;;;;;;;;4819330;29;20346;-83
2023/04/03 11:03:15;;;;;;;14.07;2.75;;;;;;;;;;4829493;29;20117;-84
2023/04/03 11:05:50;;;;;;;11.55;2.67;;;;;;;;;;4824701;29;20558;-85
2023/04/03 11:08:37;;;;;;;13.33;2.93;;;;;;;;;;4822387;29;20049;-83
2023/04/03 11:11:05;;;;;;;;;;;;;;;;;;4821318;29;20494;-83
2023/04/03 11:13:51;;;;;;;15.10;2.88;;;;;;;;;;4832880;29;19943;-83
2023/04/03 11:16:32;;;;;;;13.15;2.70;;;;;;;;;;4820366;29;20412;-83
2023/04/03 11:19:26;;;;;;;12.73;2.50;;;;;;;;;;4817156;29;20054;-82
2023/04/03 11:22:17;;;;;;;79.38;7.15;;;;;;;;;;4827417;29;20359;-82
2023/04/03 11:24:57;;;;;;;98.35;7.93;;;;;;;;;;4826012;29;20148;-83
2023/04/03 11:27:30;;;;;;;16.13;2.13;;;;;;;;;;4967608;28;20027;-82
2023/04/03 11:29:58;;;;;;;16.35;2.60;;;;;;;;;;4944404;28;20046;-82
2023/04/03 11:32:43;;;;;;;14.20;2.20;;;;;;;;;;4952028;28;20484;-82
2023/04/03 11:35:10;;;;;;;9.88;2.00;;;;;;;;;;4967718;28;20041;-82
2023/04/03 11:37:47;;;;;;;10.93;1.98;;;;;;;;;;4864031;28;2664454;-82
2023/04/03 11:40:22;;;;;;;12.45;2.00;;;;;;;;;;4971400;28;20426;-81
2023/04/03 11:42:52;;;;;;;18.85;2.65;;;;;;;;;;4961743;28;20038;-83
2023/04/03 11:45:37;;;;;;;16.08;2.15;;;;;;;;;;4963206;28;20031;-83
2023/04/03 11:48:25;;;;;;;16.70;2.65;;;;;;;;;;4942583;28;20117;-83
2023/04/03 11:50:53;;;;;;;19.75;3.28;;;;;;;;;;4964529;28;20399;-84
2023/04/03 11:53:34;;;;;;;17.48;2.47;;;;;;;;;;4967340;28;20026;-83
2023/04/03 11:56:06;;;;;;;16.85;2.53;;;;;;;;;;4963744;28;20145;-82
2023/04/03 11:58:36;;;;;;;15.88;2.65;;;;;;;;;;4953447;28;20125;-82
2023/04/03 12:01:32;;;;;;;16.85;2.97;;;;;;;;;;4963346;28;20050;-82
2023/04/03 12:04:13;;;;;;;16.98;3.15;;;;;;;;;;4946310;28;20389;-82
2023/04/03 12:07:01;;;;;;;13.05;2.15;;;;;;;;;;4964302;28;20088;-81
2023/04/03 12:09:33;;;;;;;16.00;2.90;;;;;;;;;;4941117;28;20429;-82
2023/04/03 12:12:02;;;;;;;16.88;2.35;;;;;;;;;;4941775;28;20506;-83
2023/04/03 12:14:30;;;;;;;17.30;2.60;;;;;;;;;;4943938;28;20069;-83
2023/04/03 12:17:01;;;;;;;14.27;2.28;;;;;;;;;;4939405;28;20224;-82
2023/04/03 12:19:33;;;;;;;22.98;2.88;;;;;;;;;;4939793;28;20045;-81
2023/04/03 12:22:03;;;;;;;25.98;2.53;;;;;;;;;;4927973;28;20494;-82
2023/04/03 12:24:31;;;;;;;76.20;5.75;;;;;;;;;;4944178;28;20162;-82
2023/04/03 12:27:00;;;;;;;44.72;4.43;;;;;;;;;;4938080;28;20565;-82
2023/04/03 12:29:32;;;;;;;24.92;2.70;;;;;;;;;;4942830;28;20058;-83
2023/04/03 12:32:17;;;;;;;26.33;2.90;;;;;;;;;;4942170;28;20035;-82
2023/04/03 12:34:59;;;;;;;29.05;2.92;;;;;;;;;;4936030;28;20399;-82
2023/04/03 12:37:44;;;;;;;37.10;3.40;;;;;;;;;;4940115;28;20038;-84
2023/04/03 12:40:28;;;;;;;28.75;2.92;;;;;;;;;;4945537;28;20397;-82
2023/04/03 12:43:14;;;;;;;66.00;5.00;;;;;;;;;;4955334;28;20436;-83
2023/04/03 12:45:47;;;;;;;14.80;2.58;;;;;;;;;;4958316;28;20037;-84
2023/04/03 12:48:17;;;;;;;10.60;1.80;;;;;;;;;;4957062;28;20355;-81
2023/04/03 12:50:51;;;;;;;10.10;2.10;;;;;;;;;;4942563;28;20128;-81
2023/04/03 12:53:24;;;;;;;9.25;2.10;;;;;;;;;;4943462;28;20088;-83
2023/04/03 12:56:00;;;;;;;17.60;2.00;;;;;;;;;;4936701;28;20031;-83
2023/04/03 12:58:30;;;;;;;15.97;2.33;;;;;;;;;;4959823;28;20175;-82
2023/04/03 13:01:03;;;;;;;11.10;2.22;;;;;;;;;;4956187;28;20742;-83
2023/04/03 13:03:32;;;;;;;10.20;1.77;;;;;;;;;;4931558;28;20050;-83
2023/04/03 13:06:24;;;;;;;30.65;3.63;;;;;;;;;;4956960;28;20497;-82
2023/04/03 13:09:00;;;;;;;10.68;2.33;;;;;;;;;;4956027;28;20030;-82
2023/04/03 13:11:32;;;;;;;13.32;2.80;;;;;;;;;;4928807;28;20516;-82
2023/04/03 13:14:03;;;;;;;9.60;2.30;;;;;;;;;;4938436;28;20042;-82
2023/04/03 13:16:32;;;;;;;20.58;2.25;;;;;;;;;;4959705;28;20205;-82
2023/04/03 13:18:58;;;;;;;7.93;1.30;;;;;;;;;;4959454;28;20035;-83
2023/04/03 13:21:24;;;;;;;15.48;1.95;;;;;;;;;;4952633;28;20430;-82
2023/04/03 13:23:53;;;;;;;11.52;1.95;;;;;;;;;;4965436;28;20262;-83
2023/04/03 13:26:22;;;;;;;12.13;1.42;;;;;;;;;;4938373;28;20029;-84
2023/04/03 13:28:51;;;;;;;20.90;1.85;;;;;;;;;;4949820;28;20333;-83
2023/04/03 13:31:26;;;;;;;10.85;1.35;;;;;;;;;;4967762;28;20045;-84
2023/04/03 13:34:11;;;;;;;15.98;2.08;;;;;;;;;;4961822;28;20153;-82
2023/04/03 13:36:41;;;;;;;21.70;2.00;;;;;;;;;;4971029;28;20023;-82
2023/04/03 13:39:21;;;;;;;10.38;1.42;;;;;;;;;;4972632;28;20054;-83
2023/04/03 13:41:50;;;;;;;20.33;1.92;;;;;;;;;;4965477;28;20094;-82
2023/04/03 13:44:28;;;;;;;6.55;1.25;;;;;;;;;;4965873;28;20070;-81
2023/04/03 13:46:57;;;;;;;45.20;2.47;;;;;;;;;;4947001;28;20490;-82
2023/04/03 13:49:32;;;;;;;28.85;3.38;;;;;;;;;;4947563;28;20038;-82
2023/04/03 13:52:00;;;;;;;11.88;2.25;;;;;;;;;;4960673;28;20027;-82
2023/04/03 13:54:31;;;;;;;10.10;1.65;;;;;;;;;;4960448;28;20529;-82
2023/04/03 13:57:00;;;;;;;8.35;1.60;;;;;;;;;;4967429;28;20026;-82
2023/04/03 13:59:38;;;;;;;8.07;2.00;;;;;;;;;;4971839;28;20415;-82
2023/04/03 14:02:14;;;;;;;12.95;2.60;;;;;;;;;;4960117;28;20038;-80
2023/04/03 14:04:50;;;;;;;8.68;1.85;;;;;;;;;;4945875;28;20057;-80
2023/04/03 14:07:21;;;;;;;9.40;1.67;;;;;;;;;;4970021;28;20097;-83
2023/04/03 14:09:47;;;;;;;10.98;2.83;;;;;;;;;;4967054;28;20045;-83
2023/04/03 14:12:33;;;;;;;11.85;4.32;;;;;;;;;;4976597;28;20033;-79
2023/04/03 14:15:03;;;;;;;12.18;3.75;;;;;;;;;;4946666;28;20053;-82
2023/04/03 14:17:30;;;;;;;12.07;3.03;;;;;;;;;;4963942;28;20771;-83
2023/04/03 14:20:01;;;;;;;9.45;3.13;;;;;;;;;;4962947;28;20032;-79
2023/04/03 14:22:30;;;;;;;8.57;1.77;;;;;;;;;;4965904;28;20093;-83
2023/04/03 14:24:59;;;;;;;26.73;3.72;;;;;;;;;;4937810;28;20133;-83
2023/04/03 14:27:35;;;;;;;136.15;10.45;;;;;;;;;;4973406;28;20092;-83
2023/04/03 14:30:04;;;;;;;230.05;16.00;;;;;;;;;;4941047;28;20110;-81
2023/04/03 14:32:31;;;;;;;116.55;8.00;;;;;;;;;;4965684;28;20113;-82
2023/04/03 14:35:00;;;;;;;20.30;3.33;;;;;;;;;;4971077;28;20150;-82
2023/04/03 14:37:30;;;;;;;15.02;1.80;;;;;;;;;;4971617;28;20288;-82
2023/04/03 14:40:00;;;;;;;12.52;2.50;;;;;;;;;;4956053;28;20072;-82
2023/04/03 14:42:30;;;;;;;22.00;2.85;;;;;;;;;;4972003;28;20041;-83
2023/04/03 14:45:03;;;;;;;9.98;1.60;;;;;;;;;;4957099;28;20529;-82
2023/04/03 14:47:30;;;;;;;23.02;2.20;;;;;;;;;;4968829;28;20528;-83
2023/04/03 14:50:00;;;;;;;15.15;1.83;;;;;;;;;;4952191;28;20034;-82
2023/04/03 14:52:30;;;;;;;12.23;1.42;;;;;;;;;;4945154;28;20116;-81
2023/04/03 14:55:00;;;;;;;30.70;2.83;;;;;;;;;;4954055;28;20062;-82
2023/04/03 14:57:30;;;;;;;35.05;3.88;;;;;;;;;;4970074;28;20039;-82
2023/04/03 14:59:57;;;;;;;12.57;1.85;;;;;;;;;;4954487;28;20038;-81
2023/04/03 15:02:32;;;;;;;8.93;1.70;;;;;;;;;;4970079;28;20146;-82